createdAt,value
2022-08-22T00:02:55.670Z,30.6
2022-08-22T00:08:45.134Z,30.6
2022-08-22T00:14:14.352Z,30.5
2022-08-22T00:19:44.613Z,30.5
2022-08-22T00:25:24.776Z,30.5
2022-08-22T00:30:44.147Z,30.5
2022-08-22T00:36:14.385Z,30.5
2022-08-22T00:41:43.676Z,30.5
2022-08-22T00:47:13.922Z,30.5
2022-08-22T00:52:43.250Z,30.5
2022-08-22T00:58:13.513Z,30.5
2022-08-22T01:03:43.783Z,30.5
2022-08-22T01:09:13.110Z,30.5
2022-08-22T01:14:43.413Z,30.5
2022-08-22T01:20:13.674Z,30.4
2022-08-22T01:25:42.974Z,30.4
2022-08-22T01:31:13.587Z,30.4
2022-08-22T01:36:42.634Z,30.4
2022-08-22T01:42:12.958Z,30.4
2022-08-22T01:47:43.244Z,30.4
2022-08-22T01:53:12.585Z,30.4
2022-08-22T01:58:42.919Z,30.4
2022-08-22T02:04:13.490Z,30.4
2022-08-22T02:09:42.645Z,30.4
2022-08-22T02:15:12.942Z,30.4
2022-08-22T02:20:43.237Z,30.4
2022-08-22T02:26:12.497Z,30.4
2022-08-22T02:31:42.773Z,30.4
2022-08-22T02:37:12.040Z,30.4
2022-08-22T02:42:42.321Z,30.3
2022-08-22T02:48:12.608Z,30.3
2022-08-22T02:53:41.837Z,30.3
2022-08-22T02:59:12.098Z,30.3
2022-08-22T03:04:42.364Z,30.3
2022-08-22T03:10:11.738Z,30.3
2022-08-22T03:15:48.414Z,30.3
2022-08-22T03:21:11.305Z,30.3
2022-08-22T03:26:41.621Z,30.3
2022-08-22T03:32:11.907Z,30.3
2022-08-22T03:37:41.221Z,30.3
2022-08-22T03:43:11.518Z,30.3
2022-08-22T03:48:41.823Z,30.3
2022-08-22T03:54:11.138Z,30.3
2022-08-22T03:59:42.531Z,30.3
2022-08-22T04:05:10.737Z,30.3
2022-08-22T04:10:41.017Z,30.2
2022-08-22T04:16:11.312Z,30.3
2022-08-22T04:21:40.606Z,30.2
2022-08-22T04:27:10.990Z,30.2
2022-08-22T04:32:40.332Z,30.2
2022-08-22T04:38:10.670Z,30.2
2022-08-22T04:43:41.004Z,30.2
2022-08-22T04:49:10.370Z,30.2
2022-08-22T04:54:40.730Z,30.2
2022-08-22T05:00:11.007Z,30.2
2022-08-22T05:05:40.360Z,30.2
2022-08-22T05:11:10.682Z,30.2
2022-08-22T05:16:41.017Z,30.2
2022-08-22T05:22:10.352Z,30.1
2022-08-22T05:27:40.689Z,30.2
2022-08-22T05:33:10.053Z,30.1
2022-08-22T05:38:40.395Z,30.2
2022-08-22T05:44:10.824Z,30.2
2022-08-22T05:49:40.182Z,30.2
2022-08-22T05:55:10.514Z,30.2
2022-08-22T06:00:39.872Z,30.2
2022-08-22T06:06:10.201Z,30
2022-08-22T06:11:40.529Z,29.8
2022-08-22T06:17:10.108Z,29.6
2022-08-22T06:22:40.300Z,29.4
2022-08-22T06:28:10.687Z,29.3
2022-08-22T06:33:39.143Z,29.2
2022-08-22T06:39:09.543Z,29.2
2022-08-22T06:44:39.910Z,29.2
2022-08-22T06:50:13.913Z,29.1
2022-08-22T06:55:39.957Z,29.1
2022-08-22T07:01:12.428Z,29.1
2022-08-22T07:06:39.407Z,29.1
2022-08-22T07:12:09.736Z,29.1
2022-08-22T07:17:40.719Z,29.1
2022-08-22T07:23:09.503Z,29.1
2022-08-22T07:28:50.787Z,29.2
2022-08-22T07:34:09.226Z,29.3
2022-08-22T07:39:39.626Z,29.3
2022-08-22T07:45:08.950Z,29.4
2022-08-22T07:50:39.334Z,29.6
2022-08-22T07:56:09.663Z,29.8
2022-08-22T08:01:39.057Z,30
2022-08-22T08:07:09.450Z,30.1
2022-08-22T08:12:39.750Z,30.3
2022-08-22T08:18:09.111Z,30.3
2022-08-22T08:23:39.743Z,30.4
2022-08-22T08:29:08.717Z,30.5
2022-08-22T08:34:38.972Z,30.6
2022-08-22T08:40:09.354Z,30.7
2022-08-22T08:45:38.556Z,30.8
2022-08-22T08:51:09.265Z,30.8
2022-08-22T08:56:39.078Z,30.9
2022-08-22T09:02:08.312Z,31
2022-08-22T09:07:38.556Z,31
2022-08-22T09:13:12.165Z,31.1
2022-08-22T09:18:38.019Z,31.1
2022-08-22T09:24:08.354Z,31.2
2022-08-22T09:29:51.508Z,31.2
2022-08-22T09:35:07.899Z,31.3
2022-08-22T09:40:37.159Z,31.3
2022-08-22T09:46:07.371Z,31.3
2022-08-22T09:51:37.635Z,31.4
2022-08-22T09:57:06.888Z,31.5
2022-08-22T10:02:37.128Z,31.5
2022-08-22T10:08:07.372Z,31.5
2022-08-22T10:13:36.742Z,31.6
2022-08-22T10:19:06.862Z,31.6
2022-08-22T10:24:43.930Z,31.6
2022-08-22T10:30:06.299Z,31.6
2022-08-22T10:35:36.533Z,31.6
2022-08-22T10:41:09.300Z,31.6
2022-08-22T10:46:36.089Z,31.5
2022-08-22T10:52:15.816Z,31.5
2022-08-22T10:57:35.574Z,31.5
2022-08-22T11:03:12.160Z,31.5
2022-08-22T11:08:35.994Z,31.5
2022-08-22T11:14:05.236Z,31.5
2022-08-22T11:19:35.469Z,31.5
2022-08-22T11:25:05.022Z,31.6
2022-08-22T11:30:36.377Z,31.7
2022-08-22T11:36:05.118Z,31.8
2022-08-22T11:41:34.287Z,31.8
2022-08-22T11:47:04.507Z,31.9
2022-08-22T11:52:34.708Z,32
2022-08-22T11:58:04.025Z,32
2022-08-22T12:03:34.192Z,32
2022-08-22T12:09:03.392Z,32
2022-08-22T12:14:33.559Z,32.1
2022-08-22T12:20:17.556Z,32.2
2022-08-22T12:25:33.894Z,32.3
2022-08-22T12:31:01.108Z,32.5
2022-08-22T12:36:30.252Z,32.6
2022-08-22T12:42:00.385Z,32.7
2022-08-22T12:47:32.030Z,32.8
2022-08-22T12:53:00.596Z,32.9
2022-08-22T12:58:31.771Z,33
2022-08-22T13:03:58.021Z,33
2022-08-22T13:09:28.690Z,33.2
2022-08-22T13:14:57.148Z,33.3
2022-08-22T13:20:27.231Z,33.3
2022-08-22T13:25:56.327Z,33.3
2022-08-22T13:31:26.405Z,33.3
2022-08-22T13:36:56.469Z,33.2
2022-08-22T13:42:30.100Z,33.1
2022-08-22T13:47:55.673Z,33
2022-08-22T13:53:25.794Z,33.1
2022-08-22T13:58:54.876Z,33
2022-08-22T14:04:32.101Z,32.9
2022-08-22T14:09:54.611Z,32.8
2022-08-22T14:15:24.241Z,32.8
2022-08-22T14:20:54.342Z,32.8
2022-08-22T14:26:23.472Z,32.7
2022-08-22T14:31:53.586Z,32.7
2022-08-22T14:37:23.735Z,32.5
2022-08-22T14:42:53.842Z,32.4
2022-08-22T14:48:30.341Z,32.4
2022-08-22T14:53:53.106Z,32.4
2022-08-22T14:59:22.268Z,32.3
2022-08-22T15:04:52.424Z,32.3
2022-08-22T15:10:22.563Z,32.3
2022-08-22T15:15:54.977Z,32.3
2022-08-22T15:21:24.437Z,32.3
2022-08-22T15:26:52.191Z,32.2
2022-08-22T15:32:21.386Z,32.2
2022-08-22T15:37:51.580Z,32
2022-08-22T15:43:21.858Z,32
2022-08-22T15:48:52.381Z,32.1
2022-08-22T15:54:24.837Z,32
2022-08-22T15:59:54.250Z,32
2022-08-22T16:05:20.656Z,32.1
2022-08-22T16:10:50.839Z,32.1
2022-08-22T16:16:20.038Z,32.1
2022-08-22T16:21:50.220Z,32
2022-08-22T16:27:20.434Z,32
2022-08-22T16:32:49.682Z,31.9
2022-08-22T16:38:19.873Z,31.9
2022-08-22T16:43:53.626Z,31.8
2022-08-22T16:49:19.287Z,31.8
2022-08-22T16:54:49.493Z,31.8
2022-08-22T17:00:22.396Z,31.7
2022-08-22T17:05:48.874Z,31.7
2022-08-22T17:11:19.090Z,31.7
2022-08-22T17:16:53.382Z,31.7
2022-08-22T17:22:18.467Z,31.6
2022-08-22T17:27:48.654Z,31.6
2022-08-22T17:33:17.860Z,31.6
2022-08-22T17:38:47.118Z,31.5
2022-08-22T17:44:17.337Z,31.5
2022-08-22T17:49:46.605Z,31.5
2022-08-22T17:55:16.832Z,31.5
2022-08-22T18:00:47.064Z,31.5
2022-08-22T18:06:16.312Z,31.4
2022-08-22T18:11:46.506Z,31.4
2022-08-22T18:17:16.691Z,31.4
2022-08-22T18:22:46.105Z,31.4
2022-08-22T18:28:16.314Z,31.4
2022-08-22T18:33:45.594Z,31.4
2022-08-22T18:39:15.816Z,31.3
2022-08-22T18:44:46.054Z,31.4
2022-08-22T18:50:15.309Z,31.3
2022-08-22T18:55:45.577Z,31.3
2022-08-22T19:01:14.878Z,31.3
2022-08-22T19:06:45.087Z,31.3
2022-08-22T19:12:15.339Z,31.3
2022-08-22T19:17:44.618Z,31.3
2022-08-22T19:23:14.998Z,31.2
2022-08-22T19:28:45.276Z,31.2
2022-08-22T19:34:14.545Z,31.2
2022-08-22T19:39:44.851Z,31.2
2022-08-22T19:45:15.057Z,31.2
2022-08-22T19:50:44.325Z,31.2
2022-08-22T19:56:14.570Z,31.2
2022-08-22T20:01:44.007Z,31.2
2022-08-22T20:07:14.719Z,31.2
2022-08-22T20:12:44.285Z,31.2
2022-08-22T20:18:47.418Z,31.2
2022-08-22T20:23:43.773Z,31.2
2022-08-22T20:29:14.043Z,31.2
2022-08-22T20:34:43.413Z,31.2
2022-08-22T20:40:51.897Z,31.1
2022-08-22T20:45:43.063Z,31.1
2022-08-22T20:51:13.354Z,31.1
2022-08-22T20:56:48.690Z,31.1
2022-08-22T21:02:12.989Z,31.1
2022-08-22T21:07:43.304Z,31.1
2022-08-22T21:13:13.569Z,31.1
2022-08-22T21:18:41.898Z,31.1
2022-08-22T21:24:12.156Z,31.1
2022-08-22T21:29:42.448Z,31
2022-08-22T21:35:11.705Z,31
2022-08-22T21:40:42.017Z,31
2022-08-22T21:46:12.253Z,31
2022-08-22T21:51:41.543Z,31
2022-08-22T21:57:11.812Z,31
2022-08-22T22:02:42.192Z,31
2022-08-22T22:08:12.470Z,31
2022-08-22T22:13:42.749Z,31
2022-08-22T22:19:12.040Z,31
2022-08-22T22:24:42.318Z,31
2022-08-22T22:30:11.604Z,31
2022-08-22T22:35:41.887Z,31
2022-08-22T22:41:12.174Z,31
2022-08-22T22:46:41.449Z,31
2022-08-22T22:52:11.845Z,30.9
2022-08-22T22:57:42.655Z,30.9
2022-08-22T23:03:11.353Z,30.9
2022-08-22T23:08:41.597Z,30.9
2022-08-22T23:14:10.906Z,30.9
2022-08-22T23:19:41.205Z,30.9
2022-08-22T23:25:11.473Z,30.9
2022-08-22T23:30:40.750Z,30.9
2022-08-22T23:36:11.027Z,30.9
2022-08-22T23:41:40.325Z,30.9
2022-08-22T23:47:10.609Z,30.9
2022-08-22T23:52:40.902Z,30.9
2022-08-22T23:58:10.321Z,30.9
